x

Norfolk, Va (44059) Weather Station

10:40am - Fri 25th Jul 2014 All times are EDT. -4 hours from GMT.

  • Wind
    13mph, 20mph gusts
  • Air Temp 76°f
  • Sea Pressure 1016.6mb
  • Norfolk, Va
  • Norfolk, Va

More Historic Weather Station data

Upgrade to MSW Pro to gain access to the past 30 days of data for over 8000 Wavebouys and Weather Stations around the globe.

Join Pro

Comparision Forecast

View Surf forecast
   
Fri 07/25 10:40am 13 20 mph 1016.6mb - 76f
10:30am 13 20 mph 1016.6mb - 76f
10:20am 11 18 mph 1016.5mb - 76f
10:10am 13 18 mph 1016.5mb - 76f
10:00am 11 16 mph 1016.4mb 80f 76f
9:50am 13 18 mph 1016.4mb - 76f
9:40am 9 18 mph 1016.4mb - 76f
9:30am 9 13 mph 1016.3mb - 76f
9:20am 9 11 mph 1016.3mb - 75f
9:10am 9 13 mph 1016.3mb - 75f
9:00am 9 11 mph 1016.3mb 80f 75f
8:50am 9 11 mph 1016.2mb - 74f
8:40am 9 13 mph 1016.1mb - 74f
8:30am 9 11 mph 1016mb - 74f
8:20am 9 11 mph 1015.8mb - 74f
8:10am 9 11 mph 1015.7mb - 74f
8:00am 7 11 mph 1015.5mb 80f 74f
7:50am 7 9 mph 1015.4mb - 73f
7:40am 7 11 mph 1015.2mb - 73f
7:30am 7 11 mph 1015.1mb - 73f
7:20am 7 11 mph 1015mb - 73f
7:10am 7 9 mph 1014.9mb - 73f
7:00am 7 11 mph 1014.7mb 80f 73f
6:50am 7 9 mph 1014.6mb - 73f
6:40am 4 9 mph 1014.5mb - 72f
6:30am 4 7 mph 1014.3mb - 72f
6:20am 4 7 mph 1014.2mb - 71f
6:10am 4 7 mph 1014.1mb - 71f
6:00am 7 9 mph 1014mb 79f 71f
5:50am 7 9 mph 1013.9mb - 71f
5:40am 7 9 mph 1013.8mb - 72f
5:30am 9 11 mph 1013.8mb - 72f
5:20am 9 13 mph 1013.7mb - 72f
5:10am 9 13 mph 1013.7mb - 73f
5:00am 9 13 mph 1013.6mb 80f 72f
4:50am 11 13 mph 1013.5mb - 73f
4:40am 11 16 mph 1013.4mb - 73f
4:30am 11 13 mph 1013.4mb - 73f
4:20am 9 16 mph 1013.4mb - 73f
4:10am 9 16 mph 1013.3mb - 73f
4:00am 9 16 mph 1013.4mb 80f 73f
3:50am 7 11 mph 1013.4mb - 72f
3:40am 7 11 mph 1013.3mb - 72f
3:30am 7 11 mph 1013.4mb - 72f
3:20am 9 11 mph 1013.4mb - 72f
3:10am 9 13 mph 1013.4mb - 73f
3:00am 7 13 mph 1013.2mb 80f 73f
2:50am 7 11 mph 1013.1mb - 72f
2:40am 7 11 mph 1013mb - 72f
2:30am 7 11 mph 1013mb - 72f
2:20am 9 13 mph 1012.8mb - 72f
2:10am 4 7 mph 1012.5mb - 72f
2:00am 4 9 mph 1012.4mb 79f 72f
1:50am 4 9 mph 1012.4mb - 72f
1:40am 4 9 mph 1012.4mb - 72f
1:30am 4 9 mph 1012.3mb - 73f
1:20am 4 7 mph 1012.2mb - 73f
1:10am 4 7 mph 1012.3mb - 73f
1:00am 4 7 mph 1012.1mb 79f 73f
12:50am 4 7 mph 1011.9mb - 73f
12:40am 2 4 mph 1011.9mb - 73f
12:30am 2 4 mph 1011.8mb - 73f
12:20am 2 4 mph 1011.5mb - 73f
12:10am 2 4 mph 1011.3mb - 73f
12:00am 2 4 mph 1011mb 79f 73f
Thu 07/24 11:50pm 4 7 mph 1010.7mb - 73f
11:40pm 7 9 mph 1010.6mb - 73f
11:30pm 4 9 mph 1011.2mb - 73f
11:20pm 4 7 mph 1011.3mb - 73f
11:10pm 4 7 mph 1011.4mb - 73f
11:00pm 7 9 mph 1011.3mb 80f 73f
10:50pm 9 11 mph 1011.1mb - 73f
10:40pm 9 11 mph 1011.6mb - 73f
10:30pm 7 9 mph 1011.9mb - 73f
10:20pm 9 11 mph 1012mb - 73f
10:10pm 7 9 mph 1012.1mb - 73f
10:00pm 11 13 mph 1011.9mb 80f 73f
9:50pm 11 16 mph 1011.9mb - 73f
9:40pm 11 16 mph 1011.6mb - 73f
9:30pm 7 11 mph 1011.7mb - 73f
9:20pm 9 13 mph 1011.8mb - 73f
9:10pm 9 13 mph 1011.9mb - 73f
9:00pm 11 22 mph 1011.7mb 81f 72f
8:50pm 13 27 mph 1011.6mb - 73f
8:40pm 13 18 mph 1011.9mb - 72f
8:30pm 16 25 mph 1011.4mb - 72f
8:20pm 16 27 mph 1011.2mb - 73f
8:10pm 9 13 mph 1011mb - 74f
8:00pm 9 13 mph 1010.4mb 81f 74f
7:50pm 9 16 mph 1010.8mb - 75f
7:40pm 11 16 mph 1010.3mb - 76f
7:30pm 11 16 mph 1009.7mb - 77f
7:20pm 9 16 mph 1009.7mb - 77f
7:10pm 9 11 mph 1009.7mb - 78f
7:00pm 9 13 mph 1009.5mb 82f 78f
6:50pm 9 13 mph 1009.2mb - 78f
6:40pm 7 11 mph 1009.4mb - 78f
6:30pm 9 11 mph 1009.6mb - 78f
6:20pm 7 13 mph 1009.6mb - 78f
6:10pm 9 13 mph 1009.5mb - 78f
6:00pm 9 11 mph 1009.6mb 82f 79f
5:50pm 9 13 mph 1009.4mb - 79f
5:40pm 9 16 mph 1009.4mb - 79f
5:30pm 9 13 mph 1009.5mb - 80f
5:20pm 9 13 mph 1009.4mb - 80f
5:10pm 9 11 mph 1009.5mb - 80f
5:00pm 7 11 mph 1009.6mb 82f 80f
4:50pm 7 9 mph 1009.7mb - 80f
4:40pm 4 9 mph 1009.8mb - 80f
4:30pm 7 9 mph 1009.9mb - 80f
4:20pm 4 9 mph 1010.1mb - 80f
4:10pm 7 11 mph 1010.2mb - 80f
4:00pm 7 9 mph 1010.1mb 82f 80f
3:50pm 9 11 mph 1010.2mb - 79f
3:40pm 9 13 mph 1010.3mb - 80f
3:30pm 7 9 mph 1010.4mb - 79f
3:20pm 7 9 mph 1010.3mb - 79f
3:10pm 7 9 mph 1010.3mb - 79f
3:00pm 4 9 mph 1010.3mb 81f 78f
2:50pm 7 11 mph 1010.2mb - 78f
2:40pm 4 7 mph 1010.2mb - 78f
2:30pm 4 7 mph 1010.2mb - 78f
2:20pm 7 9 mph 1010.3mb - 78f
2:10pm 7 9 mph 1010.5mb - 78f
2:00pm 4 7 mph 1010.5mb 81f 78f
1:50pm 4
mph
1010.8mb - 78f
1:40pm 4 7 mph 1010.9mb - 77f
1:30pm 4 7 mph 1010.8mb - 77f
1:20pm 4
mph
1010.7mb - 77f
1:10pm 4 7 mph 1010.6mb - 77f
1:00pm 4 7 mph 1010.5mb 81f 77f
12:50pm 4 7 mph 1010.7mb - 77f
12:40pm 2 4 mph 1010.9mb - 76f
12:20pm 2 4 mph 1011.1mb - 76f
12:10pm  -  mph 1011.3mb - 76f
12:00pm  -  4 mph 1011.5mb 80f 76f
11:50am 4 7 mph 1011.4mb - 76f
11:40am 4 7 mph 1011mb - 75f
11:30am 4 9 mph 1010.6mb - 75f
11:20am  -  7 mph 1010.4mb - 75f
11:10am 4 9 mph 1010.3mb - 75f
11:00am 7 9 mph 1010.6mb 80f 74f
10:50am 7 11 mph 1010.7mb - 74f
10:40am 9 11 mph 1011mb - 74f
10:30am 9 13 mph 1011.4mb - 74f
10:20am 7 16 mph 1012.4mb - 75f
10:10am 13 18 mph 1011.5mb - 76f
10:00am 16 22 mph 1010.7mb 81f 78f
9:50am 13 20 mph 1010.8mb - 78f
9:40am 11 16 mph 1010.8mb - 79f
9:30am 9 18 mph 1010.8mb - 79f
9:20am 7 11 mph 1010.6mb - 80f
9:10am 7 11 mph 1010.4mb - 80f
9:00am 7 11 mph 1010.3mb 81f 80f
8:50am 9 11 mph 1010.2mb - 80f
8:40am 7 11 mph 1010mb - 80f
8:30am 7 9 mph 1010mb - 80f
8:20am 4 9 mph 1009.9mb - 79f
8:10am 4 9 mph 1009.8mb - 79f
8:00am 4 11 mph 1009.9mb 81f 78f
7:50am 4 11 mph 1009.9mb - 78f
7:40am 4 9 mph 1009.7mb - 78f
7:30am 7 9 mph 1009.7mb - 78f
7:20am 7 11 mph 1009.7mb - 78f
7:10am 7 9 mph 1009.6mb - 77f
7:00am 4 9 mph 1009.6mb 80f 77f
6:50am 7 11 mph 1009.6mb - 77f
6:40am 7 11 mph 1009.6mb - 77f
6:30am 7 9 mph 1009.6mb - 77f
6:20am 7 9 mph 1009.6mb - 77f
6:10am 4 9 mph 1009.5mb - 77f
6:00am 4 7 mph 1009.3mb 81f 77f
5:50am 4 9 mph 1009.3mb - 77f
5:40am 4 9 mph 1009.3mb - 77f
5:30am 7 9 mph 1009.3mb - 77f
5:20am 7 13 mph 1009.4mb - 77f
5:10am 4 11 mph 1009.4mb - 78f
5:00am 4 11 mph 1009.4mb 81f 78f
4:50am 4 7 mph 1009.5mb - 78f
4:40am 7 11 mph 1009.4mb - 78f
4:30am 7 11 mph 1009.4mb - 78f
4:20am 7 11 mph 1009.5mb - 78f
4:10am 7 11 mph 1009.4mb - 78f
4:00am 4 9 mph 1009.5mb 81f 78f
3:50am 4 11 mph 1009.5mb - 78f
3:40am 7 11 mph 1009.5mb - 79f
3:30am 7 11 mph 1009.6mb - 79f
3:20am 7 13 mph 1009.6mb - 79f
3:10am 9 16 mph 1009.6mb - 79f
3:00am 9 13 mph 1009.7mb 81f 79f
2:50am 9 13 mph 1009.7mb - 79f
2:40am 9 16 mph 1009.8mb - 79f
2:30am 9 13 mph 1009.9mb - 79f
2:20am 9 13 mph 1009.9mb - 79f
2:10am 9 16 mph 1010.1mb - 79f
2:00am 7 13 mph 1010.2mb 80f 79f
1:50am 9 13 mph 1010.3mb - 79f
1:40am 9 13 mph 1010.3mb - 79f
1:30am 9 13 mph 1010.3mb - 79f
1:20am 9 13 mph 1010.3mb - 79f
1:10am 7 11 mph 1010.4mb - 79f
1:00am 9 13 mph 1010.5mb 80f 79f
12:50am 9 13 mph 1010.6mb - 79f
12:40am 9 13 mph 1010.7mb - 79f
12:30am 7 11 mph 1010.7mb - 80f
12:20am 9 11 mph 1010.7mb - 80f
12:10am 9 13 mph 1010.6mb - 80f
12:00am 9 11 mph 1010.7mb 81f 80f
Wed 07/23 11:50pm 9 13 mph 1010.7mb - 80f
11:40pm 7 11 mph 1010.7mb - 80f
11:30pm 7 11 mph 1010.7mb - 80f
11:20pm 7 9 mph 1010.7mb - 81f
11:10pm 9 11 mph 1010.7mb - 81f
11:00pm 9 13 mph 1010.7mb 81f 81f
10:50pm 11 16 mph 1010.7mb - 82f
10:40pm 9 16 mph 1010.8mb - 82f
10:30pm 9 16 mph 1010.9mb - 82f
10:20pm 9 13 mph 1010.9mb - 82f
10:10pm 11 16 mph 1011.1mb - 83f
10:00pm 9 13 mph 1011.1mb 81f 83f
9:50pm 9 13 mph 1011.2mb - 84f
9:40pm 9 13 mph 1011.2mb - 84f
9:30pm 7 11 mph 1011.1mb - 84f
9:20pm 7 9 mph 1011.2mb - 84f
9:10pm 7 9 mph 1011.2mb - 85f
9:00pm 7 9 mph 1011.1mb 81f 85f
8:50pm 7 11 mph 1011mb - 85f
8:40pm 7 9 mph 1011mb - 85f
8:30pm 7 11 mph 1010.9mb - 85f
8:20pm 7 11 mph 1010.6mb - 86f
8:10pm 7 13 mph 1010.5mb - 86f
8:00pm 7 11 mph 1010.5mb 82f 86f
7:50pm 9 13 mph 1010.5mb - 87f
7:40pm 9 16 mph 1010.4mb - 87f
7:30pm 11 18 mph 1010.4mb - 87f
7:20pm 11 18 mph 1010.2mb - 87f
7:10pm 11 16 mph 1010.2mb - 88f
7:00pm 13 20 mph 1010.3mb 82f 88f
6:50pm 11 18 mph 1010.3mb - 88f
6:40pm 11 18 mph 1010.4mb - 88f
6:30pm 9 16 mph 1010.4mb - 88f
6:20pm 9 13 mph 1010.4mb - 88f
6:10pm 11 16 mph 1010.5mb - 88f
6:00pm 9 16 mph 1010.6mb 83f 88f
5:50pm 11 16 mph 1010.7mb - 88f
5:40pm 11 16 mph 1010.9mb - 88f
5:30pm 9 13 mph 1010.9mb - 88f
5:20pm 9 16 mph 1011mb - 88f
5:10pm 9 16 mph 1011.2mb - 88f
5:00pm 11 18 mph 1011.4mb 82f 88f
4:50pm 9 16 mph 1011.6mb - 88f
4:40pm 9 13 mph 1011.7mb - 88f
4:30pm 9 16 mph 1011.9mb - 88f
4:20pm 9 13 mph 1012mb - 88f
4:10pm 7 16 mph 1012.1mb - 88f
4:00pm 9 13 mph 1012.3mb 82f 88f
3:50pm 9 13 mph 1012.4mb - 87f
3:40pm 9 16 mph 1012.6mb - 87f
3:30pm 7 16 mph 1012.6mb - 87f
3:20pm 7 16 mph 1012.7mb - 87f
3:10pm 9 13 mph 1012.8mb - 87f
3:00pm 7 11 mph 1012.8mb 82f 87f
2:50pm 7 11 mph 1013mb - 87f
2:40pm 4 9 mph 1013.2mb - 87f
2:30pm 7 13 mph 1013.3mb - 86f
2:20pm 4 11 mph 1013.4mb - 86f
2:10pm 7 16 mph 1013.5mb - 86f
2:00pm 4 7 mph 1013.6mb 83f 86f
1:50pm 4 11 mph 1013.8mb - 86f
1:40pm 4 11 mph 1014mb - 85f
1:30pm 4 13 mph 1014mb - 85f
1:20pm 4 9 mph 1014mb - 85f
1:10pm 4 11 mph 1014.2mb - 84f
1:00pm 4 9 mph 1014.3mb 81f 84f
12:50pm 4 7 mph 1014.5mb - 83f
12:40pm 2 7 mph 1014.6mb - 83f
12:30pm 4 9 mph 1014.7mb - 82f
12:20pm 4 9 mph 1014.8mb - 82f
12:10pm 2 7 mph 1015mb - 81f
12:00pm 4 9 mph 1015.2mb 81f 80f
11:50am 4 9 mph 1015.4mb - 80f
11:40am 4 9 mph 1015.4mb - 80f
11:30am 4 7 mph 1015.6mb - 79f
11:20am 2 7 mph 1015.6mb - 79f
11:10am 4 9 mph 1015.8mb - 78f
11:00am 4 11 mph 1015.9mb 81f 78f
10:50am 7 11 mph 1016mb - 78f
10:40am 4 9 mph 1016.1mb - 78f
10:30am 4 9 mph 1016.2mb - 77f
10:20am 4 11 mph 1016.3mb - 77f
10:10am 4 9 mph 1016.3mb - 77f
10:00am 4 9 mph 1016.3mb 80f 77f
9:50am 7 9 mph 1016.4mb - 76f
9:40am 4 7 mph 1016.3mb - 76f
9:30am 4 7 mph 1016.4mb - 76f
9:20am 4 7 mph 1016.3mb - 76f
9:10am 4 9 mph 1016.4mb - 76f
9:00am 2 4 mph 1016.3mb 80f 75f
8:50am  -  2 mph 1016.3mb - 75f
8:40am 4 7 mph 1016.3mb - 75f
8:30am 4 7 mph 1016.4mb - 75f
8:20am 4 7 mph 1016.4mb - 74f
8:10am 4 7 mph 1016.4mb - 74f
8:00am 2 4 mph 1016.4mb 80f 74f
7:50am 4 7 mph 1016.3mb - 74f
7:40am 2 4 mph 1016.3mb - 74f
7:30am 2 7 mph 1016.2mb - 74f
7:20am 4 7 mph 1016.2mb - 74f
7:10am 4
mph
1016.1mb - 74f
7:00am 2 4 mph 1016mb 80f 74f
6:50am 2 4 mph 1015.8mb - 74f
6:40am 2 7 mph 1015.7mb - 74f
6:30am 2 4 mph 1015.6mb - 74f
6:20am 4 7 mph 1015.7mb - 74f
6:10am 4 7 mph 1015.7mb - 74f
6:00am 2 4 mph 1015.7mb 80f 74f
5:50am 2 7 mph 1015.9mb - 74f
5:40am 2 4 mph 1016mb - 74f
5:30am 2 4 mph 1016mb - 74f
5:20am 2 4 mph 1016mb - 74f
5:10am 2 4 mph 1016.1mb - 74f
5:00am 2 4 mph 1016.1mb 80f 74f
4:50am 2 7 mph 1016.2mb - 75f
4:40am 2 4 mph 1016.1mb - 75f
4:30am 2
mph
1016.2mb - 75f
4:20am 2 4 mph 1016.1mb - 75f
4:10am 2 4 mph 1016mb - 75f
4:00am 2 4 mph 1016mb 80f 75f
3:50am 2 4 mph 1016mb - 75f
3:40am  -  2 mph 1016mb - 75f
3:30am  -  2 mph 1016.1mb - 75f
3:20am 2
mph
1016.3mb - 75f
3:10am 2
mph
1016.4mb - 75f
3:00am 2 4 mph 1016.5mb 80f 75f
2:50am 2 4 mph 1016.4mb - 75f
2:40am 2 4 mph 1016.5mb - 76f
2:30am 4
mph
1016.6mb - 76f
2:20am 2 4 mph 1016.6mb - 76f
2:10am 4
mph
1016.8mb - 76f
2:00am 4 7 mph 1016.9mb 80f 76f
1:50am 2 4 mph 1017mb - 76f
1:40am 4
mph
1017.1mb - 76f
1:30am 4
mph
1017.3mb - 76f
1:20am 4
mph
1017.4mb - 76f
1:10am 4 7 mph 1017.5mb - 76f
1:00am 4 7 mph 1017.6mb 80f 76f
12:50am 4 7 mph 1017.6mb - 77f
12:40am 4 7 mph 1017.7mb - 77f
12:30am 2 4 mph 1017.8mb - 77f
12:20am 2 4 mph 1017.8mb - 77f
12:10am 4
mph
1017.8mb - 77f
12:00am 4 7 mph 1017.8mb 81f 77f
Tue 07/22 11:50pm 7
mph
1017.7mb - 77f
11:40pm 4 7 mph 1017.8mb - 77f
11:30pm 4 7 mph 1017.8mb - 77f
6:30pm 9 11 mph 1018.3mb - 81f
6:10pm 11 13 mph 1018.6mb - 81f
6:00pm 9 16 mph 1018.5mb 82f 81f
5:50pm 11 16 mph 1018.5mb - 81f
5:40pm 11 16 mph 1018.5mb - 81f
5:30pm 11 16 mph 1018.6mb - 82f
5:20pm 11 13 mph 1018.6mb - 82f
5:10pm 11 16 mph 1018.6mb - 82f
5:00pm 9 13 mph 1018.7mb 82f 82f
4:50pm 9 13 mph 1018.8mb - 82f
4:40pm 9 11 mph 1018.8mb - 82f
4:30pm 9 16 mph 1018.7mb - 82f
4:20pm 9 13 mph 1018.6mb - 82f
4:10pm 9 11 mph 1018.8mb - 82f
4:00pm 9 13 mph 1018.9mb 82f 81f
3:50pm 11 13 mph 1019mb - 81f
3:40pm 9 13 mph 1019.2mb - 81f
3:30pm 9 13 mph 1019.3mb - 82f
3:20pm 9 13 mph 1019.3mb - 82f
3:10pm 9 13 mph 1019.4mb - 82f
3:00pm 9 16 mph 1019.4mb 82f 82f
2:50pm 7 11 mph 1019.4mb - 82f
2:40pm 9 11 mph 1019.5mb - 81f
2:30pm 9 13 mph 1019.5mb - 82f
2:20pm 9 13 mph 1019.6mb - 82f
2:10pm 9 11 mph 1019.6mb - 81f
2:00pm 9 11 mph 1019.5mb 82f 81f
1:50pm 9 11 mph 1019.6mb - 81f
1:40pm 7 11 mph 1019.8mb - 81f
1:30pm 9 11 mph 1020mb - 81f
1:20pm 9 13 mph 1020.1mb - 81f
1:10pm 9 11 mph 1020.2mb - 81f
1:00pm 9 11 mph 1020.2mb 81f 80f
12:50pm 9 11 mph 1020.3mb - 80f
12:40pm 9 11 mph 1020.4mb - 80f
12:30pm 9 11 mph 1020.4mb - 80f
12:20pm 9 11 mph 1020.6mb - 80f
12:10pm 9 11 mph 1020.6mb - 80f
12:00pm 9 11 mph 1020.7mb 81f 80f
11:50am 7 11 mph 1020.7mb - 80f
11:40am 9 11 mph 1020.7mb - 80f
11:30am 9 11 mph 1020.8mb - 80f
11:20am 7 11 mph 1020.7mb - 80f
11:10am 7 11 mph 1020.6mb - 80f
11:00am 9 11 mph 1020.6mb 80f 79f
10:50am 9 11 mph 1020.5mb - 79f
10:40am 7 11 mph 1020.5mb - 79f
10:30am 9 11 mph 1020.5mb - 79f
10:20am 7 11 mph 1020.5mb - 79f
10:10am 7 11 mph 1020.5mb - 79f
10:00am 4 11 mph 1020.6mb 80f 79f
9:50am 7 9 mph 1020.6mb - 79f
9:40am 4 9 mph 1020.6mb - 78f
9:30am 7 11 mph 1020.7mb - 78f
9:20am 7 11 mph 1020.6mb - 78f
9:10am 7 9 mph 1020.7mb - 78f
9:00am 4 9 mph 1020.8mb 79f 77f
8:50am 4 9 mph 1021mb - 77f
8:40am 7 9 mph 1021mb - 77f
8:30am 4 9 mph 1021mb - 77f
8:20am 7 9 mph 1021mb - 76f
8:10am 7 11 mph 1020.9mb - 76f
8:00am 7 11 mph 1020.7mb 80f 76f
7:50am 7 11 mph 1020.6mb - 76f
7:40am 7 9 mph 1020.5mb - 76f
7:30am 7 9 mph 1020.4mb - 76f
7:20am 7 9 mph 1020.3mb - 76f
7:10am 4 9 mph 1020.3mb - 75f
7:00am 4 9 mph 1020.3mb 79f 75f
6:50am 4 9 mph 1020.2mb - 75f
6:40am 7 9 mph 1020.1mb - 74f
6:30am 4 7 mph 1019.9mb - 74f
6:20am 4 7 mph 1019.9mb - 74f
6:10am 7 9 mph 1019.8mb - 74f
6:00am 4 9 mph 1019.7mb 79f 74f
5:50am 4 9 mph 1019.7mb - 74f
5:40am 4 7 mph 1019.6mb - 74f
5:30am 4 7 mph 1019.5mb - 74f
5:20am 4 9 mph 1019.5mb - 75f
5:10am 4 7 mph 1019.4mb - 75f
5:00am 4 7 mph 1019.4mb 80f 74f
4:50am 4 7 mph 1019.3mb - 74f
4:40am 2 4 mph 1019.2mb - 74f
4:30am 2 4 mph 1019.3mb - 74f
4:20am 2 4 mph 1019.4mb - 74f
4:10am 2 4 mph 1019.5mb - 74f
4:00am 2 4 mph 1019.6mb 80f 74f
3:50am 2 4 mph 1019.6mb - 74f
3:40am 2 4 mph 1019.6mb - 74f
3:30am 4 7 mph 1019.7mb - 74f
3:20am 4 7 mph 1019.7mb - 75f
3:10am 4 7 mph 1019.7mb - 75f
3:00am 4 7 mph 1019.7mb 80f 75f
2:50am 4 7 mph 1019.8mb - 75f
2:40am 4 7 mph 1020mb - 75f
2:30am 4
mph
1020.1mb - 75f
2:20am 4
mph
1020.2mb - 75f
2:10am 4 7 mph 1020.3mb - 75f
2:00am 4 7 mph 1020.3mb 80f 75f
1:50am 4 7 mph 1020.3mb - 75f
1:40am 4
mph
1020.4mb - 75f
1:30am 2 4 mph 1020.4mb - 75f
1:20am 2 4 mph 1020.6mb - 75f
1:10am 2 4 mph 1020.7mb - 75f
1:00am 2 4 mph 1020.7mb 80f 75f
12:50am 2 4 mph 1020.7mb - 75f
12:40am 4 7 mph 1020.6mb - 75f
12:30am 7
mph
1020.5mb - 75f
12:20am 4 7 mph 1020.5mb - 75f
12:10am 4 7 mph 1020.6mb - 75f
12:00am 7
mph
1020.7mb 79f 75f
Mon 07/21 11:50pm 4 7 mph 1020.7mb - 75f
11:40pm 4 7 mph 1020.6mb - 75f
11:30pm 4 7 mph 1020.7mb - 75f
11:20pm 7 9 mph 1020.6mb - 75f
11:10pm 4 7 mph 1020.6mb - 75f
11:00pm 7 9 mph 1020.6mb 80f 75f
10:50pm 7
mph
1020.7mb - 75f
10:40pm 7 9 mph 1020.6mb - 75f
10:30pm 7 9 mph 1020.6mb - 75f
10:20pm 7 9 mph 1020.6mb - 75f
10:10pm 7 9 mph 1020.5mb - 75f
10:00pm 7 9 mph 1020.5mb 80f 75f
9:50pm 7 11 mph 1020.5mb - 75f
9:40pm 7 9 mph 1020.4mb - 75f
9:30pm 7 9 mph 1020.3mb - 75f
9:20pm 7 11 mph 1020.3mb - 75f
9:10pm 9 11 mph 1020.2mb - 75f
9:00pm 9 11 mph 1020.1mb 80f 76f
8:50pm 7 9 mph 1020.1mb - 76f
8:40pm 9 11 mph 1020mb - 76f
8:30pm 9 11 mph 1020mb - 76f
8:20pm 7 11 mph 1020.1mb - 76f
8:10pm 7 11 mph 1020.2mb - 76f
8:00pm 9 11 mph 1020.2mb 80f 76f
7:50pm 9 11 mph 1020.2mb - 76f
7:40pm 7 9 mph 1020.1mb - 76f
7:30pm 7 9 mph 1020.1mb - 76f
7:20pm 9 11 mph 1020.1mb - 76f
7:10pm 9 11 mph 1020.1mb - 76f
7:00pm 9 11 mph 1020.2mb 80f 76f
6:50pm 9 11 mph 1020.2mb - 76f
6:40pm 9 11 mph 1020.2mb - 77f
6:30pm 9 13 mph 1020.1mb - 77f
6:20pm 9 11 mph 1020.2mb - 77f
6:10pm 9 11 mph 1020.3mb - 77f
6:00pm 9 11 mph 1020.2mb 80f 77f
5:50pm 9 11 mph 1020.2mb - 77f
5:40pm 9 11 mph 1020.3mb - 77f
5:30pm 9 11 mph 1020.3mb - 77f
5:20pm 9 13 mph 1020.3mb - 77f
5:10pm 9 11 mph 1020.3mb - 77f
5:00pm 9 11 mph 1020.3mb 80f 77f
4:50pm 9 11 mph 1020.3mb - 77f
4:40pm 9 11 mph 1020.3mb - 77f
4:30pm 7 9 mph 1020.2mb - 77f
4:20pm 7 11 mph 1020.1mb - 77f
4:10pm 9 11 mph 1020.1mb - 77f
4:00pm 7 9 mph 1020.2mb 80f 77f
3:50pm 7 9 mph 1020.1mb - 77f
3:40pm 7 9 mph 1020.2mb - 78f
3:30pm 7 9 mph 1020.3mb - 78f
3:20pm 7 9 mph 1020.2mb - 78f